createdAt,value
2018-12-18T00:00:05.550Z,28.8
2018-12-18T00:02:05.304Z,28.8
2018-12-18T00:04:06.003Z,28.8
2018-12-18T00:06:05.707Z,28.8
2018-12-18T00:08:05.409Z,28.8
2018-12-18T00:10:05.083Z,28.8
2018-12-18T00:12:05.822Z,28.9
2018-12-18T00:14:05.611Z,28.8
2018-12-18T00:16:05.319Z,28.9
2018-12-18T00:18:07.746Z,28.8
2018-12-18T00:20:06.033Z,28.9
2018-12-18T00:22:08.271Z,28.9
2018-12-18T00:24:05.163Z,28.9
2018-12-18T00:26:05.102Z,28.9
2018-12-18T00:28:08.330Z,28.8
2018-12-18T00:30:05.989Z,28.8
2018-12-18T00:32:07.759Z,28.8
2018-12-18T00:34:05.985Z,28.8
2018-12-18T00:36:05.260Z,28.8
2018-12-18T00:38:05.998Z,28.8
2018-12-18T00:40:05.675Z,28.7
2018-12-18T00:42:16.054Z,28.9
2018-12-18T00:44:05.735Z,28.9
2018-12-18T00:46:05.975Z,28.9
2018-12-18T00:48:05.662Z,28.9
2018-12-18T00:50:05.442Z,28.8
2018-12-18T00:52:05.243Z,28.7
2018-12-18T00:54:06.039Z,28.9
2018-12-18T00:56:08.409Z,28.8
2018-12-18T00:58:05.318Z,28.8
2018-12-18T01:00:06.030Z,28.8
2018-12-18T01:02:08.254Z,28.7
2018-12-18T01:04:08.744Z,28.9
2018-12-18T01:06:05.572Z,28.9
2018-12-18T01:08:13.478Z,28.7
2018-12-18T01:10:05.148Z,28.8
2018-12-18T01:12:05.824Z,28.9
2018-12-18T01:14:05.542Z,28.6
2018-12-18T01:16:05.182Z,28.7
2018-12-18T01:18:05.039Z,28.8
2018-12-18T01:20:05.702Z,28.8
2018-12-18T01:22:05.395Z,28.9
2018-12-18T01:24:05.099Z,28.8
2018-12-18T01:26:05.882Z,28.8
2018-12-18T01:28:05.654Z,28.8
2018-12-18T01:30:08.359Z,28.7
2018-12-18T01:32:05.156Z,28.7
2018-12-18T01:34:05.886Z,28.6
2018-12-18T01:36:08.093Z,28.8
2018-12-18T01:38:05.812Z,28.6
2018-12-18T01:40:05.594Z,28.8
2018-12-18T01:42:05.263Z,28.6
2018-12-18T01:44:06.009Z,28.7
2018-12-18T01:46:07.762Z,28.7
2018-12-18T01:48:05.496Z,28.7
2018-12-18T01:50:05.202Z,28.7
2018-12-18T01:52:05.897Z,28.7
2018-12-18T01:54:05.149Z,28.7
2018-12-18T01:56:06.018Z,28.7
2018-12-18T01:58:05.305Z,28.7
2018-12-18T02:00:08.547Z,28.6
2018-12-18T02:02:05.253Z,28.7
2018-12-18T02:04:06.649Z,28.7
2018-12-18T02:06:05.340Z,28.6
2018-12-18T02:08:05.100Z,28.6
2018-12-18T02:10:08.496Z,28.6
2018-12-18T02:12:05.248Z,28.6
2018-12-18T02:14:05.962Z,28.5
2018-12-18T02:16:05.668Z,28.6
2018-12-18T02:18:05.061Z,28.7
2018-12-18T02:20:05.775Z,28.7
2018-12-18T02:22:05.523Z,28.5
2018-12-18T02:24:05.213Z,28.6
2018-12-18T02:26:06.021Z,28.6
2018-12-18T02:28:05.765Z,28.6
2018-12-18T02:30:05.444Z,28.6
2018-12-18T02:32:05.192Z,28.5
2018-12-18T02:34:05.389Z,28.6
2018-12-18T02:36:05.545Z,28.6
2018-12-18T02:38:05.862Z,28.6
2018-12-18T02:40:08.121Z,28.6
2018-12-18T02:42:05.787Z,28.6
2018-12-18T02:44:05.469Z,28.6
2018-12-18T02:46:05.671Z,28.8
2018-12-18T02:48:05.341Z,28.6
2018-12-18T02:50:05.031Z,28.5
2018-12-18T02:52:05.758Z,28.5
2018-12-18T02:54:05.433Z,28.6
2018-12-18T02:56:10.310Z,28.6
2018-12-18T02:58:05.970Z,28.6
2018-12-18T03:00:05.623Z,28.5
2018-12-18T03:02:05.331Z,28.6
2018-12-18T03:04:05.059Z,28.5
2018-12-18T03:06:05.896Z,28.5
2018-12-18T03:08:05.597Z,28.7
2018-12-18T03:10:05.276Z,28.5
2018-12-18T03:12:05.951Z,28.5
2018-12-18T03:14:05.659Z,28.5
2018-12-18T03:16:07.947Z,28.6
2018-12-18T03:18:07.940Z,28.6
2018-12-18T03:20:05.607Z,28.6
2018-12-18T03:22:05.750Z,28.6
2018-12-18T03:24:05.999Z,28.6
2018-12-18T03:26:05.800Z,28.6
2018-12-18T03:28:05.089Z,28.7
2018-12-18T03:30:05.343Z,28.7
2018-12-18T03:32:05.244Z,28.5
2018-12-18T03:34:05.920Z,28.6
2018-12-18T03:36:05.604Z,28.5
2018-12-18T03:38:07.841Z,28.7
2018-12-18T03:40:05.519Z,28.6
2018-12-18T03:42:05.204Z,28.6
2018-12-18T03:44:05.900Z,28.7
2018-12-18T03:46:05.651Z,28.5
2018-12-18T03:48:05.342Z,28.5
2018-12-18T03:50:07.698Z,28.5
2018-12-18T03:52:06.073Z,28.5
2018-12-18T03:54:08.329Z,28.5
2018-12-18T03:56:05.410Z,28.5
2018-12-18T03:58:05.143Z,28.5
2018-12-18T04:00:05.765Z,28.5
2018-12-18T04:02:07.995Z,28.5
2018-12-18T04:04:05.641Z,28.5
2018-12-18T04:06:05.347Z,28.5
2018-12-18T04:08:05.073Z,28.6
2018-12-18T04:10:10.486Z,28.5
2018-12-18T04:12:05.177Z,28.5
2018-12-18T04:14:05.843Z,28.5
2018-12-18T04:16:05.512Z,28.6
2018-12-18T04:18:05.431Z,28.4
2018-12-18T04:20:07.701Z,28.6
2018-12-18T04:22:05.381Z,28.6
2018-12-18T04:24:05.159Z,28.5
2018-12-18T04:26:05.886Z,28.5
2018-12-18T04:28:05.621Z,28.4
2018-12-18T04:30:07.855Z,28.5
2018-12-18T04:32:05.602Z,28.5
2018-12-18T04:34:05.257Z,28.6
2018-12-18T04:36:05.939Z,28.5
2018-12-18T04:38:05.658Z,28.5
2018-12-18T04:40:05.361Z,28.5
2018-12-18T04:42:05.101Z,28.5
2018-12-18T04:44:10.875Z,28.7
2018-12-18T04:46:08.130Z,28.7
2018-12-18T04:48:05.798Z,28.7
2018-12-18T04:50:05.467Z,28.7
2018-12-18T04:52:05.284Z,28.8
2018-12-18T04:54:08.469Z,28.7
2018-12-18T04:56:05.162Z,28.7
2018-12-18T04:58:08.478Z,28.7
2018-12-18T05:00:06.450Z,28.7
2018-12-18T05:07:39.341Z,28.6
2018-12-18T05:08:07.602Z,28.7
2018-12-18T05:10:05.397Z,28.8
2018-12-18T05:12:05.114Z,28.8
2018-12-18T05:14:05.824Z,28.8
2018-12-18T05:16:05.516Z,28.7
2018-12-18T05:18:13.530Z,28.8
2018-12-18T05:20:05.953Z,28.8
2018-12-18T05:22:05.674Z,28.7
2018-12-18T05:24:05.363Z,28.7
2018-12-18T05:26:05.620Z,28.6
2018-12-18T05:28:05.313Z,28.6
2018-12-18T05:30:08.313Z,28.6
2018-12-18T05:32:08.595Z,28.6
2018-12-18T05:34:08.118Z,28.6
2018-12-18T05:36:08.373Z,28.7
2018-12-18T05:38:10.645Z,28.5
2018-12-18T05:40:05.308Z,28.7
2018-12-18T05:42:06.035Z,28.7
2018-12-18T05:44:05.395Z,28.7
2018-12-18T05:46:07.711Z,28.6
2018-12-18T05:48:05.727Z,28.6
2018-12-18T05:50:12.990Z,28.6
2018-12-18T05:52:05.381Z,28.7
2018-12-18T05:54:05.604Z,28.7
2018-12-18T05:56:18.002Z,28.6
2018-12-18T05:58:05.717Z,28.6
2018-12-18T06:00:05.391Z,28.6
2018-12-18T06:02:07.585Z,28.6
2018-12-18T06:04:05.305Z,28.6
2018-12-18T06:06:05.999Z,28.6
2018-12-18T06:08:05.697Z,28.6
2018-12-18T06:10:05.902Z,28.6
2018-12-18T06:12:08.118Z,28.6
2018-12-18T06:14:08.317Z,28.6
2018-12-18T06:16:07.690Z,28.7
2018-12-18T06:18:08.094Z,28.6
2018-12-18T06:20:06.169Z,28.8
2018-12-18T06:22:08.006Z,28.7
2018-12-18T06:24:10.287Z,28.7
2018-12-18T06:26:08.526Z,28.7
2018-12-18T06:28:05.214Z,28.7
2018-12-18T06:30:05.901Z,28.8
2018-12-18T06:32:05.596Z,28.7
2018-12-18T06:34:12.888Z,28.7
2018-12-18T06:36:08.104Z,28.6
2018-12-18T06:38:05.904Z,28.6
2018-12-18T06:40:05.618Z,28.5
2018-12-18T06:42:05.524Z,28.7
2018-12-18T06:44:05.729Z,28.7
2018-12-18T06:46:07.960Z,28.7
2018-12-18T06:48:05.209Z,28.5
2018-12-18T06:50:05.468Z,28.5
2018-12-18T06:52:05.190Z,28.5
2018-12-18T06:54:05.902Z,28.7
2018-12-18T06:56:05.146Z,28.7
2018-12-18T06:58:08.349Z,28.6
2018-12-18T07:00:05.501Z,28.6
2018-12-18T07:02:05.168Z,28.5
2018-12-18T07:04:05.326Z,28.7
2018-12-18T07:06:08.551Z,28.5
2018-12-18T07:08:05.246Z,28.5
2018-12-18T07:10:05.556Z,28.5
2018-12-18T07:12:05.234Z,28.7
2018-12-18T07:14:05.968Z,28.6
2018-12-18T07:16:08.217Z,28.7
2018-12-18T07:18:05.100Z,28.7
2018-12-18T07:20:05.865Z,28.6
2018-12-18T07:22:05.551Z,28.7
2018-12-18T07:24:14.446Z,28.7
2018-12-18T07:26:05.148Z,28.7
2018-12-18T07:28:05.926Z,28.7
2018-12-18T07:30:05.635Z,28.8
2018-12-18T07:32:07.908Z,28.6
2018-12-18T07:34:05.771Z,28.6
2018-12-18T07:36:08.272Z,28.6
2018-12-18T07:38:05.571Z,28.6
2018-12-18T07:40:05.804Z,28.6
2018-12-18T07:42:05.528Z,28.6
2018-12-18T07:44:05.233Z,28.6
2018-12-18T07:46:05.916Z,28.6
2018-12-18T07:48:05.588Z,28.6
2018-12-18T07:50:13.340Z,28.6
2018-12-18T07:52:04.981Z,28.6
2018-12-18T07:54:05.626Z,28.6
2018-12-18T07:56:05.342Z,28.8
2018-12-18T07:58:05.089Z,28.8
2018-12-18T08:00:05.786Z,28.7
2018-12-18T08:02:05.510Z,28.7
2018-12-18T08:04:05.792Z,28.7
2018-12-18T08:06:05.454Z,28.7
2018-12-18T08:08:07.700Z,28.6
2018-12-18T08:10:05.413Z,28.8
2018-12-18T08:12:15.398Z,28.8
2018-12-18T08:14:05.147Z,28.8
2018-12-18T08:16:05.824Z,28.8
2018-12-18T08:18:05.716Z,28.8
2018-12-18T08:20:05.446Z,28.6
2018-12-18T08:22:05.098Z,28.6
2018-12-18T08:24:05.322Z,28.6
2018-12-18T08:26:05.985Z,28.8
2018-12-18T08:28:05.210Z,28.9
2018-12-18T08:30:10.930Z,28.7
2018-12-18T08:32:05.627Z,28.8
2018-12-18T08:34:05.381Z,28.7
2018-12-18T08:36:05.605Z,28.9
2018-12-18T08:38:05.317Z,28.9
2018-12-18T08:40:05.026Z,28.8
2018-12-18T08:42:05.787Z,28.9
2018-12-18T08:44:10.549Z,28.8
2018-12-18T08:46:10.865Z,28.9
2018-12-18T08:48:10.581Z,29
2018-12-18T08:50:05.296Z,29
2018-12-18T08:52:05.940Z,29
2018-12-18T08:54:05.657Z,29
2018-12-18T08:56:05.355Z,29
2018-12-18T08:58:10.686Z,28.9
2018-12-18T09:00:05.337Z,29
2018-12-18T09:02:05.103Z,29
2018-12-18T09:04:05.765Z,28.9
2018-12-18T09:06:05.449Z,28.8
2018-12-18T09:08:05.167Z,29
2018-12-18T09:10:05.369Z,29
2018-12-18T09:12:08.073Z,29.1
2018-12-18T09:14:05.775Z,29.1
2018-12-18T09:16:06.042Z,29.1
2018-12-18T09:18:08.526Z,29
2018-12-18T09:20:05.209Z,29
2018-12-18T09:22:05.908Z,29
2018-12-18T09:24:05.594Z,29
2018-12-18T09:26:05.387Z,29.2
2018-12-18T09:28:05.069Z,28.9
2018-12-18T09:30:05.723Z,29
2018-12-18T09:32:13.014Z,29
2018-12-18T09:34:10.772Z,29.1
2018-12-18T09:36:05.446Z,29
2018-12-18T09:38:05.282Z,29.1
2018-12-18T09:40:05.979Z,28.9
2018-12-18T09:42:05.677Z,28.9
2018-12-18T09:44:05.415Z,28.9
2018-12-18T09:46:05.111Z,29
2018-12-18T09:48:05.853Z,29
2018-12-18T09:50:05.635Z,29
2018-12-18T09:52:05.300Z,29
2018-12-18T09:54:06.038Z,29
2018-12-18T09:56:05.209Z,28.8
2018-12-18T09:58:05.879Z,28.9
2018-12-18T10:00:05.569Z,29
2018-12-18T10:02:05.782Z,28.9
2018-12-18T10:04:08.577Z,28.8
2018-12-18T10:06:05.762Z,28.8
2018-12-18T10:08:05.408Z,29
2018-12-18T10:10:05.113Z,29.4
2018-12-18T10:12:05.800Z,29.7
2018-12-18T10:14:06.098Z,29.9
2018-12-18T10:16:08.323Z,29.7
2018-12-18T10:18:05.207Z,29.7
2018-12-18T10:20:05.902Z,29.6
2018-12-18T10:22:18.264Z,29.5
2018-12-18T10:24:05.500Z,29.5
2018-12-18T10:26:05.760Z,29.5
2018-12-18T10:28:05.441Z,29.5
2018-12-18T10:30:05.667Z,29.5
2018-12-18T10:32:05.605Z,29.6
2018-12-18T10:34:10.296Z,29.7
2018-12-18T10:36:05.941Z,29.7
2018-12-18T10:38:05.589Z,29.7
2018-12-18T10:40:05.237Z,29.7
2018-12-18T10:42:08.012Z,29.8
2018-12-18T10:44:05.308Z,29.8
2018-12-18T10:46:11.015Z,29.8
2018-12-18T10:48:05.638Z,29.8
2018-12-18T10:50:10.334Z,29.6
2018-12-18T10:52:05.570Z,29.8
2018-12-18T10:54:05.273Z,29.7
2018-12-18T10:56:08.508Z,29.8
2018-12-18T10:58:05.321Z,29.8
2018-12-18T11:00:05.629Z,29.7
2018-12-18T11:02:05.296Z,29.9
2018-12-18T11:04:05.973Z,29.8
2018-12-18T11:06:10.426Z,29.9
2018-12-18T11:08:10.230Z,29.8
2018-12-18T11:10:07.969Z,29.8
2018-12-18T11:12:08.194Z,29.8
2018-12-18T11:14:05.902Z,29.7
2018-12-18T11:16:05.589Z,29.7
2018-12-18T11:18:08.021Z,29.7
2018-12-18T11:20:08.283Z,29.7
2018-12-18T11:22:05.024Z,29.5
2018-12-18T11:24:05.708Z,29.7
2018-12-18T11:26:05.934Z,29.7
2018-12-18T11:28:05.701Z,29.7
2018-12-18T11:30:05.358Z,29.7
2018-12-18T11:32:07.538Z,29.7
2018-12-18T11:34:05.564Z,29.6
2018-12-18T11:36:07.841Z,29.6
2018-12-18T11:38:05.371Z,29.6
2018-12-18T11:40:05.067Z,29.6
2018-12-18T11:42:05.757Z,29.6
2018-12-18T11:44:05.441Z,29.6
2018-12-18T11:46:05.940Z,29.6
2018-12-18T11:48:08.592Z,29.6
2018-12-18T11:50:05.947Z,29.6
2018-12-18T11:52:07.707Z,29.6
2018-12-18T11:54:05.540Z,29.6
2018-12-18T11:56:06.005Z,29.6
2018-12-18T11:58:07.703Z,29.5
2018-12-18T12:00:05.494Z,29.5
2018-12-18T12:02:05.457Z,29.5
2018-12-18T12:04:07.647Z,29.5
2018-12-18T12:06:05.385Z,29.5
2018-12-18T12:08:05.635Z,29.4
2018-12-18T12:10:05.323Z,29.5
2018-12-18T12:12:05.279Z,29.5
2018-12-18T12:14:08.895Z,29.4
2018-12-18T12:16:05.580Z,29.4
2018-12-18T12:18:05.523Z,29.4
2018-12-18T12:20:05.402Z,29.4
2018-12-18T12:22:05.429Z,29.4
2018-12-18T12:24:05.157Z,29.6
2018-12-18T12:26:05.888Z,29.5
2018-12-18T12:28:05.885Z,29.6
2018-12-18T12:30:05.785Z,29.3
2018-12-18T12:32:08.232Z,29.3
2018-12-18T12:34:06.035Z,29.4
2018-12-18T12:36:05.777Z,29.5
2018-12-18T12:38:08.113Z,29.4
2018-12-18T12:40:05.407Z,29.4
2018-12-18T12:42:07.595Z,29.4
2018-12-18T12:44:07.817Z,29.4
2018-12-18T12:46:06.544Z,29.4
2018-12-18T12:48:05.214Z,29.4
2018-12-18T12:50:05.964Z,29.4
2018-12-18T12:52:05.717Z,29.4
2018-12-18T12:54:05.623Z,29.4
2018-12-18T12:56:08.140Z,29.4
2018-12-18T12:58:05.911Z,29.4
2018-12-18T13:00:05.699Z,29.4
2018-12-18T13:02:05.084Z,29.4
2018-12-18T13:04:05.832Z,29.3
2018-12-18T13:06:05.980Z,29.3
2018-12-18T13:08:08.206Z,29.4
2018-12-18T13:10:05.918Z,29.4
2018-12-18T13:12:05.699Z,29.2
2018-12-18T13:14:05.373Z,29.4
2018-12-18T13:16:05.113Z,29.3
2018-12-18T13:18:05.552Z,29.2
2018-12-18T13:20:05.217Z,29.3
2018-12-18T13:22:10.269Z,29.2
2018-12-18T13:24:05.514Z,29.4
2018-12-18T13:26:05.485Z,29.4
2018-12-18T13:28:05.275Z,29.4
2018-12-18T13:30:11.061Z,29.4
2018-12-18T13:32:08.359Z,29.3
2018-12-18T13:34:05.821Z,29.3
2018-12-18T13:36:05.713Z,29.3
2018-12-18T13:38:13.688Z,29.2
2018-12-18T13:40:05.919Z,29.2
2018-12-18T13:42:05.705Z,29.2
2018-12-18T13:44:05.469Z,29.2
2018-12-18T13:46:05.379Z,29.2
2018-12-18T13:48:05.954Z,29.3
2018-12-18T13:50:05.895Z,29.3
2018-12-18T13:52:05.167Z,29.3
2018-12-18T13:54:07.596Z,29.3
2018-12-18T13:56:05.236Z,29.3
2018-12-18T13:58:05.925Z,29.3
2018-12-18T14:00:05.616Z,29.3
2018-12-18T14:02:05.542Z,29.3
2018-12-18T14:04:05.299Z,29.3
2018-12-18T14:06:05.541Z,29.3
2018-12-18T14:08:05.261Z,29.3
2018-12-18T14:10:06.186Z,29.3
2018-12-18T14:12:05.872Z,29.3
2018-12-18T14:14:05.799Z,29.3
2018-12-18T14:16:05.504Z,29.4
2018-12-18T14:18:05.603Z,29.3
2018-12-18T14:20:08.272Z,29.3
2018-12-18T14:22:07.959Z,29.4
2018-12-18T14:24:05.786Z,29.4
2018-12-18T14:26:05.740Z,29.4
2018-12-18T14:28:12.988Z,29.4
2018-12-18T14:30:07.631Z,29.4
2018-12-18T14:32:05.674Z,29.4
2018-12-18T14:34:12.264Z,29.3
2018-12-18T14:36:06.536Z,29.4
2018-12-18T14:38:10.870Z,29.3
2018-12-18T14:40:06.457Z,29.3
2018-12-18T14:42:06.866Z,29.3
2018-12-18T14:44:05.194Z,29.3
2018-12-18T14:46:06.724Z,29.3
2018-12-18T14:48:05.728Z,29.4
2018-12-18T14:50:06.456Z,29.3
2018-12-18T14:52:05.136Z,29.3
2018-12-18T14:54:05.830Z,29.3
2018-12-18T14:56:06.602Z,29.3
2018-12-18T14:58:06.761Z,29.3
2018-12-18T15:00:06.645Z,29.3
2018-12-18T15:02:05.034Z,29.3
2018-12-18T15:04:05.744Z,29.3
2018-12-18T15:06:05.452Z,29.3
2018-12-18T15:08:05.128Z,29.3
2018-12-18T15:10:05.863Z,29.3
2018-12-18T15:12:05.615Z,29.3
2018-12-18T15:14:05.328Z,29.3
2018-12-18T15:16:05.590Z,29.3
2018-12-18T15:18:10.531Z,29.3
2018-12-18T15:20:05.754Z,29.1
2018-12-18T15:22:07.931Z,29.3
2018-12-18T15:24:18.295Z,29.3
2018-12-18T15:26:04.977Z,29.3
2018-12-18T15:28:05.156Z,29.3
2018-12-18T15:30:05.941Z,29.3
2018-12-18T15:32:05.156Z,29.2
2018-12-18T15:34:15.666Z,29.1
2018-12-18T15:36:07.476Z,29.3
2018-12-18T15:38:05.377Z,29.2
2018-12-18T15:40:05.272Z,29.3
2018-12-18T15:42:10.974Z,29.3
2018-12-18T15:44:05.659Z,29.1
2018-12-18T15:46:15.980Z,29.3
2018-12-18T15:48:05.639Z,29.3
2018-12-18T15:50:05.326Z,29.3
2018-12-18T15:52:05.503Z,29.3
2018-12-18T15:54:05.176Z,29.5
2018-12-18T15:56:05.936Z,29.3
2018-12-18T15:58:05.616Z,29.2
2018-12-18T16:00:07.865Z,29.4
2018-12-18T16:02:05.575Z,29.4
2018-12-18T16:04:08.148Z,29.4
2018-12-18T16:06:05.861Z,29.4
2018-12-18T16:08:06.628Z,29.4
2018-12-18T16:10:11.388Z,29.5
2018-12-18T16:12:05.071Z,29.5
2018-12-18T16:14:06.233Z,29.6
2018-12-18T16:16:06.168Z,29.7
2018-12-18T16:18:06.164Z,29.8
2018-12-18T16:20:08.438Z,29.7
2018-12-18T16:22:07.091Z,29.7
2018-12-18T16:24:05.296Z,29.8
2018-12-18T16:26:07.922Z,29.9
2018-12-18T16:28:05.861Z,29.9
2018-12-18T16:30:05.536Z,29.9
2018-12-18T16:32:07.796Z,30
2018-12-18T16:34:05.626Z,29.8
2018-12-18T16:36:05.396Z,30
2018-12-18T16:38:05.074Z,30.2
2018-12-18T16:40:05.735Z,30.4
2018-12-18T16:42:07.964Z,30.4
2018-12-18T16:44:05.670Z,30.7
2018-12-18T16:46:05.729Z,30.7
2018-12-18T16:48:05.443Z,30.6
2018-12-18T16:50:05.148Z,30.4
2018-12-18T16:52:05.845Z,30.5
2018-12-18T16:54:10.719Z,30.3
2018-12-18T16:56:07.443Z,30.3
2018-12-18T16:58:16.519Z,30.3
2018-12-18T17:00:06.432Z,30.3
2018-12-18T17:02:07.235Z,30.3
2018-12-18T17:04:05.352Z,30.3
2018-12-18T17:06:05.641Z,30.3
2018-12-18T17:08:05.331Z,30.3
2018-12-18T17:10:12.609Z,30
2018-12-18T17:12:12.881Z,30
2018-12-18T17:14:05.581Z,30
2018-12-18T17:16:12.791Z,30
2018-12-18T17:18:05.698Z,30
2018-12-18T17:20:05.437Z,30
2018-12-18T17:22:05.921Z,30
2018-12-18T17:24:05.751Z,30
2018-12-18T17:26:05.434Z,30
2018-12-18T17:28:07.650Z,30
2018-12-18T17:30:05.417Z,30
2018-12-18T17:32:05.087Z,29.9
2018-12-18T17:34:05.789Z,29.8
2018-12-18T17:36:05.217Z,29.8
2018-12-18T17:38:08.436Z,29.8
2018-12-18T17:40:05.368Z,29.8
2018-12-18T17:42:08.665Z,29.9
2018-12-18T17:44:05.517Z,29.9
2018-12-18T17:46:05.296Z,29.7
2018-12-18T17:48:11.042Z,29.7
2018-12-18T17:50:05.793Z,29.7
2018-12-18T17:52:08.005Z,29.7
2018-12-18T17:54:07.812Z,29.7
2018-12-18T17:56:05.565Z,29.7
2018-12-18T17:58:05.281Z,29.9
2018-12-18T18:00:06.019Z,29.8
2018-12-18T18:02:05.715Z,29.8
2018-12-18T18:04:09.416Z,29.7
2018-12-18T18:06:05.143Z,29.8
2018-12-18T18:08:05.864Z,29.7
2018-12-18T18:10:05.905Z,29.7
2018-12-18T18:12:05.923Z,29.7
2018-12-18T18:14:10.884Z,29.6
2018-12-18T18:16:05.611Z,29.6
2018-12-18T18:18:05.826Z,29.6
2018-12-18T18:20:05.512Z,29.6
2018-12-18T18:22:05.440Z,29.6
2018-12-18T18:24:05.136Z,29.6
2018-12-18T18:26:06.849Z,29.5
2018-12-18T18:28:08.101Z,29.5
2018-12-18T18:30:10.124Z,29.5
2018-12-18T18:32:05.835Z,29.5
2018-12-18T18:34:05.644Z,29.6
2018-12-18T18:36:05.883Z,29.6
2018-12-18T18:38:05.443Z,29.7
2018-12-18T18:40:07.833Z,29.5
2018-12-18T18:42:05.109Z,29.7
2018-12-18T18:44:05.799Z,29.7
2018-12-18T18:46:10.545Z,29.7
2018-12-18T18:48:05.712Z,29.5
2018-12-18T18:50:05.398Z,29.7
2018-12-18T18:52:05.138Z,29.7
2018-12-18T18:54:05.415Z,29.7
2018-12-18T18:56:05.152Z,29.7
2018-12-18T18:58:06.336Z,29.7
2018-12-18T19:00:05.539Z,29.8
2018-12-18T19:02:05.298Z,29.7
2018-12-18T19:04:05.297Z,29.8
2018-12-18T19:06:05.476Z,29.8
2018-12-18T19:08:05.153Z,29.8
2018-12-18T19:10:05.837Z,29.9
2018-12-18T19:12:05.544Z,29.7
2018-12-18T19:14:05.770Z,29.9
2018-12-18T19:16:07.566Z,29.8
2018-12-18T19:18:08.025Z,29.9
2018-12-18T19:20:10.755Z,29.9
2018-12-18T19:22:11.000Z,29.8
2018-12-18T19:24:08.225Z,29.8
2018-12-18T19:26:07.659Z,29.8
2018-12-18T19:28:05.389Z,29.8
2018-12-18T19:30:05.049Z,29.9
2018-12-18T19:32:05.215Z,29.8
2018-12-18T19:34:07.595Z,29.8
2018-12-18T19:36:05.230Z,29.8
2018-12-18T19:38:05.104Z,29.8
2018-12-18T19:40:05.302Z,29.8
2018-12-18T19:42:05.562Z,29.8
2018-12-18T19:44:05.267Z,29.8
2018-12-18T19:46:07.028Z,29.8
2018-12-18T19:48:05.982Z,29.8
2018-12-18T19:50:05.889Z,29.8
2018-12-18T19:52:05.693Z,29.9
2018-12-18T19:54:07.964Z,29.7
2018-12-18T19:56:08.178Z,29.7
2018-12-18T19:58:08.369Z,29.7
2018-12-18T20:00:05.048Z,29.7
2018-12-18T20:02:05.818Z,29.8
2018-12-18T20:04:05.483Z,29.8
2018-12-18T20:06:05.490Z,29.8
2018-12-18T20:08:10.567Z,29.7
2018-12-18T20:10:08.015Z,29.7
2018-12-18T20:12:05.724Z,29.7
2018-12-18T20:14:07.996Z,29.9
2018-12-18T20:16:05.702Z,29.9
2018-12-18T20:18:05.778Z,30
2018-12-18T20:20:08.134Z,29.9
2018-12-18T20:22:05.834Z,29.7
2018-12-18T20:24:05.055Z,29.9
2018-12-18T20:26:05.935Z,29.9
2018-12-18T20:28:05.751Z,30
2018-12-18T20:30:05.437Z,29.9
2018-12-18T20:32:05.745Z,29.9
2018-12-18T20:34:05.488Z,29.9
2018-12-18T20:36:05.994Z,29.9
2018-12-18T20:38:05.670Z,29.8
2018-12-18T20:40:05.631Z,29.8
2018-12-18T20:42:05.329Z,29.8
2018-12-18T20:44:05.556Z,29.8
2018-12-18T20:46:06.785Z,29.9
2018-12-18T20:48:08.028Z,29.9
2018-12-18T20:50:05.702Z,29.7
2018-12-18T20:52:10.416Z,29.8
2018-12-18T20:54:05.818Z,29.8
2018-12-18T20:56:05.518Z,29.7
2018-12-18T20:58:05.308Z,29.7
2018-12-18T21:00:06.017Z,29.7
2018-12-18T21:02:06.720Z,29.7
2018-12-18T21:04:05.443Z,29.7
2018-12-18T21:06:05.105Z,29.7
2018-12-18T21:08:05.832Z,29.7
2018-12-18T21:10:06.531Z,29.7
2018-12-18T21:12:07.803Z,29.8
2018-12-18T21:14:05.475Z,29.7
2018-12-18T21:16:10.280Z,29.6
2018-12-18T21:18:05.169Z,29.6
2018-12-18T21:20:05.833Z,29.6
2018-12-18T21:22:05.571Z,29.6
2018-12-18T21:24:07.747Z,29.5
2018-12-18T21:26:05.663Z,29.5
2018-12-18T21:28:07.979Z,29.6
2018-12-18T21:30:05.283Z,29.4
2018-12-18T21:32:05.049Z,29.5
2018-12-18T21:34:05.719Z,29.4
2018-12-18T21:36:05.709Z,29.6
2018-12-18T21:38:12.951Z,29.7
2018-12-18T21:40:05.616Z,29.7
2018-12-18T21:42:05.557Z,29.7
2018-12-18T21:44:10.816Z,29.7
2018-12-18T21:46:05.480Z,29.7
2018-12-18T21:48:05.165Z,29.8
2018-12-18T21:50:05.856Z,29.7
2018-12-18T21:52:06.158Z,29.8
2018-12-18T21:54:08.441Z,29.8
2018-12-18T21:56:10.934Z,29.7
2018-12-18T21:58:05.604Z,29.8
2018-12-18T22:00:09.912Z,30
2018-12-18T22:02:05.631Z,29.9
2018-12-18T22:04:06.578Z,29.9
2018-12-18T22:06:05.343Z,29.9
2018-12-18T22:08:05.102Z,30
2018-12-18T22:10:08.282Z,30
2018-12-18T22:12:06.956Z,30
2018-12-18T22:14:05.635Z,30
2018-12-18T22:16:05.317Z,30
2018-12-18T22:18:05.296Z,30
2018-12-18T22:20:05.160Z,30
2018-12-18T22:22:05.964Z,30.1
2018-12-18T22:24:07.799Z,30.1
2018-12-18T22:26:05.514Z,30
2018-12-18T22:28:05.435Z,30.1
2018-12-18T22:30:10.174Z,30
2018-12-18T22:32:05.124Z,30.1
2018-12-18T22:34:05.042Z,30
2018-12-18T22:36:08.433Z,30
2018-12-18T22:38:05.103Z,30
2018-12-18T22:40:08.375Z,30.1
2018-12-18T22:42:07.689Z,30
2018-12-18T22:44:05.385Z,30
2018-12-18T22:46:05.316Z,30.2
2018-12-18T22:48:08.723Z,30.1
2018-12-18T22:50:05.747Z,30
2018-12-18T22:52:05.451Z,30.1
2018-12-18T22:54:05.187Z,30.1
2018-12-18T22:56:05.970Z,30.1
2018-12-18T22:58:05.693Z,30.2
2018-12-18T23:00:05.552Z,30.2
2018-12-18T23:02:05.322Z,30.3
2018-12-18T23:04:05.035Z,30.2
2018-12-18T23:06:08.280Z,30
2018-12-18T23:08:06.024Z,30
2018-12-18T23:10:05.825Z,30.1
2018-12-18T23:12:05.087Z,30.2
2018-12-18T23:14:07.915Z,30.4
2018-12-18T23:16:05.612Z,30.4
2018-12-18T23:18:05.807Z,30.3
2018-12-18T23:20:05.614Z,30.2
2018-12-18T23:22:05.503Z,30.2
2018-12-18T23:24:05.201Z,30.1
2018-12-18T23:26:05.741Z,30.1
2018-12-18T23:28:21.464Z,30.2
2018-12-18T23:30:05.956Z,30.2
2018-12-18T23:32:05.271Z,30.1
2018-12-18T23:34:06.149Z,29.9
2018-12-18T23:36:05.540Z,30.2
2018-12-18T23:38:08.175Z,30.7
2018-12-18T23:40:05.606Z,30.7
2018-12-18T23:42:05.892Z,30.6
2018-12-18T23:44:11.963Z,30.5
2018-12-18T23:46:05.550Z,30.3
2018-12-18T23:48:11.316Z,30
2018-12-18T23:50:08.283Z,29.8
2018-12-18T23:52:05.802Z,29.8
2018-12-18T23:54:06.081Z,29.8
2018-12-18T23:56:08.025Z,29.7
2018-12-18T23:58:05.287Z,29.7
